createdAt,value
2018-03-07T00:00:32.049Z,38.40
2018-03-07T00:01:32.223Z,39.80
2018-03-07T00:02:32.397Z,40.30
2018-03-07T00:03:32.575Z,39.50
2018-03-07T00:04:32.752Z,41.50
2018-03-07T00:05:32.918Z,39.30
2018-03-07T00:06:33.097Z,39.50
2018-03-07T00:07:33.277Z,41.60
2018-03-07T00:08:33.446Z,40.60
2018-03-07T00:09:33.624Z,41.20
2018-03-07T00:11:33.986Z,40.40
2018-03-07T00:12:34.142Z,42.10
2018-03-07T00:13:34.318Z,40.30
2018-03-07T00:14:34.497Z,41.20
2018-03-07T00:15:34.669Z,41.00
2018-03-07T00:16:34.846Z,40.80
2018-03-07T00:17:35.020Z,40.40
2018-03-07T00:18:35.195Z,40.80
2018-03-07T00:19:35.378Z,39.80
2018-03-07T00:20:35.904Z,39.70
2018-03-07T00:21:35.729Z,40.20
2018-03-07T00:22:35.900Z,38.90
2018-03-07T00:23:36.109Z,38.60
2018-03-07T00:24:36.247Z,38.60
2018-03-07T00:25:36.427Z,40.00
2018-03-07T00:26:36.589Z,39.40
2018-03-07T00:27:36.760Z,38.60
2018-03-07T00:28:36.939Z,39.70
2018-03-07T00:29:37.120Z,40.20
2018-03-07T00:30:37.291Z,39.30
2018-03-07T00:31:37.467Z,40.80
2018-03-07T00:32:37.641Z,40.80
2018-03-07T00:33:37.817Z,40.80
2018-03-07T00:34:37.988Z,41.50
2018-03-07T00:35:38.162Z,42.70
2018-03-07T00:36:38.341Z,42.90
2018-03-07T00:37:38.519Z,43.30
2018-03-07T00:38:38.683Z,43.30
2018-03-07T00:39:38.861Z,42.40
2018-03-07T00:40:39.037Z,42.70
2018-03-07T00:41:39.210Z,43.30
2018-03-07T00:42:39.393Z,42.30
2018-03-07T00:43:39.565Z,44.50
2018-03-07T00:44:39.742Z,43.30
2018-03-07T00:45:39.901Z,40.90
2018-03-07T00:46:40.078Z,40.90
2018-03-07T00:47:40.257Z,41.20
2018-03-07T00:48:40.431Z,40.20
2018-03-07T00:49:40.607Z,38.70
2018-03-07T00:50:40.774Z,40.70
2018-03-07T00:51:40.956Z,41.40
2018-03-07T00:52:41.132Z,42.30
2018-03-07T00:53:41.301Z,45.50
2018-03-07T00:54:41.479Z,44.20
2018-03-07T00:55:41.648Z,41.90
2018-03-07T00:56:41.824Z,42.10
2018-03-07T00:57:41.998Z,39.60
2018-03-07T00:58:42.179Z,42.20
2018-03-07T00:59:42.353Z,41.40
2018-03-07T01:00:42.531Z,38.90
2018-03-07T01:01:42.704Z,39.30
2018-03-07T01:02:42.881Z,37.90
2018-03-07T01:03:43.050Z,38.80
2018-03-07T01:04:43.230Z,38.10
2018-03-07T01:05:43.403Z,38.50
2018-03-07T01:06:43.579Z,39.20
2018-03-07T01:07:43.753Z,40.70
2018-03-07T01:08:43.935Z,38.20
2018-03-07T01:09:44.101Z,38.60
2018-03-07T01:10:44.528Z,38.80
2018-03-07T01:11:44.457Z,39.80
2018-03-07T01:12:44.628Z,38.50
2018-03-07T01:13:44.808Z,37.90
2018-03-07T01:14:44.984Z,38.40
2018-03-07T01:15:45.177Z,38.60
2018-03-07T01:16:45.324Z,38.70
2018-03-07T01:17:45.501Z,38.10
2018-03-07T01:18:45.680Z,37.70
2018-03-07T01:19:45.851Z,39.10
2018-03-07T01:20:46.278Z,37.70
2018-03-07T01:21:46.204Z,38.30
2018-03-07T01:22:46.378Z,37.70
2018-03-07T01:23:46.559Z,38.20
2018-03-07T01:24:46.723Z,38.40
2018-03-07T01:25:46.908Z,38.70
2018-03-07T01:26:47.091Z,39.30
2018-03-07T01:27:47.249Z,40.10
2018-03-07T01:28:47.422Z,39.20
2018-03-07T01:29:47.597Z,39.30
2018-03-07T01:30:47.773Z,39.30
2018-03-07T01:31:47.951Z,38.90
2018-03-07T01:32:48.123Z,38.50
2018-03-07T01:33:48.300Z,39.20
2018-03-07T01:34:48.473Z,38.50
2018-03-07T01:35:48.650Z,38.50
2018-03-07T01:36:48.825Z,39.00
2018-03-07T01:37:48.997Z,39.60
2018-03-07T01:38:49.177Z,36.50
2018-03-07T01:39:49.347Z,37.80
2018-03-07T01:40:49.528Z,38.20
2018-03-07T01:41:49.705Z,38.90
2018-03-07T01:42:49.872Z,37.80
2018-03-07T01:44:50.218Z,37.80
2018-03-07T01:45:50.388Z,38.60
2018-03-07T01:46:50.556Z,38.70
2018-03-07T01:47:50.735Z,38.10
2018-03-07T01:48:50.907Z,38.70
2018-03-07T01:49:51.083Z,39.20
2018-03-07T01:50:51.254Z,37.90
2018-03-07T01:51:51.431Z,38.20
2018-03-07T01:52:51.604Z,38.20
2018-03-07T01:53:51.778Z,38.50
2018-03-07T01:54:51.948Z,38.90
2018-03-07T01:55:52.126Z,37.30
2018-03-07T01:56:52.304Z,39.00
2018-03-07T01:57:52.475Z,38.50
2018-03-07T01:58:52.655Z,37.70
2018-03-07T01:59:52.825Z,38.20
2018-03-07T02:00:53.003Z,39.10
2018-03-07T02:01:53.172Z,37.60
2018-03-07T02:02:53.346Z,39.50
2018-03-07T02:03:53.528Z,38.50
2018-03-07T02:04:53.694Z,38.90
2018-03-07T02:05:53.872Z,39.50
2018-03-07T02:06:54.042Z,38.00
2018-03-07T02:07:54.217Z,38.50
2018-03-07T02:08:54.392Z,39.20
2018-03-07T02:09:54.564Z,39.30
2018-03-07T02:10:54.744Z,38.30
2018-03-07T02:11:54.927Z,38.10
2018-03-07T02:12:55.084Z,38.70
2018-03-07T02:13:55.504Z,37.70
2018-03-07T02:14:55.445Z,38.80
2018-03-07T02:15:55.612Z,38.00
2018-03-07T02:17:55.955Z,37.70
2018-03-07T02:18:56.136Z,38.50
2018-03-07T02:19:56.303Z,37.30
2018-03-07T02:20:56.483Z,37.90
2018-03-07T02:21:56.649Z,37.20
2018-03-07T02:22:56.824Z,37.80
2018-03-07T02:23:56.994Z,39.00
2018-03-07T02:24:57.168Z,38.50
2018-03-07T02:25:57.345Z,37.60
2018-03-07T02:26:57.523Z,37.70
2018-03-07T02:27:57.691Z,38.70
2018-03-07T02:28:57.866Z,38.10
2018-03-07T02:29:58.039Z,38.30
2018-03-07T02:30:58.217Z,38.20
2018-03-07T02:31:58.394Z,37.80
2018-03-07T02:32:58.577Z,36.80
2018-03-07T02:33:58.745Z,38.30
2018-03-07T02:34:58.923Z,37.80
2018-03-07T02:35:59.092Z,39.40
2018-03-07T02:36:59.274Z,38.60
2018-03-07T02:37:59.446Z,38.20
2018-03-07T02:38:59.641Z,37.50
2018-03-07T02:39:59.808Z,39.40
2018-03-07T02:40:59.982Z,38.40
2018-03-07T02:42:00.161Z,37.00
2018-03-07T02:43:00.349Z,38.20
2018-03-07T02:44:00.498Z,38.10
2018-03-07T02:45:00.677Z,37.20
2018-03-07T02:46:00.850Z,37.60
2018-03-07T02:47:01.015Z,38.30
2018-03-07T02:48:01.189Z,37.00
2018-03-07T02:49:01.362Z,37.40
2018-03-07T02:50:01.541Z,37.30
2018-03-07T02:51:01.714Z,37.40
2018-03-07T02:52:01.889Z,38.00
2018-03-07T02:53:02.068Z,37.80
2018-03-07T02:54:02.236Z,39.80
2018-03-07T02:55:02.422Z,39.10
2018-03-07T02:56:02.585Z,38.50
2018-03-07T02:57:02.765Z,39.60
2018-03-07T02:58:02.936Z,39.00
2018-03-07T02:59:03.112Z,39.50
2018-03-07T03:00:03.289Z,39.80
2018-03-07T03:01:03.464Z,39.40
2018-03-07T03:02:03.636Z,38.30
2018-03-07T03:03:03.815Z,38.60
2018-03-07T03:04:03.989Z,38.10
2018-03-07T03:05:04.165Z,39.00
2018-03-07T03:06:04.344Z,38.30
2018-03-07T03:07:04.509Z,39.40
2018-03-07T03:08:04.696Z,40.50
2018-03-07T03:09:04.879Z,38.50
2018-03-07T03:10:05.043Z,39.10
2018-03-07T03:11:05.208Z,38.10
2018-03-07T03:12:05.388Z,38.30
2018-03-07T03:13:05.562Z,39.20
2018-03-07T03:14:05.736Z,38.70
2018-03-07T03:15:05.913Z,38.50
2018-03-07T03:16:06.090Z,39.00
2018-03-07T03:17:06.263Z,38.60
2018-03-07T03:18:06.436Z,38.40
2018-03-07T03:19:06.614Z,38.50
2018-03-07T03:20:06.799Z,37.50
2018-03-07T03:21:06.966Z,39.00
2018-03-07T03:22:07.142Z,38.40
2018-03-07T03:23:07.315Z,38.80
2018-03-07T03:24:07.490Z,39.30
2018-03-07T03:25:07.664Z,40.10
2018-03-07T03:26:07.837Z,39.60
2018-03-07T03:28:08.185Z,41.00
2018-03-07T03:29:08.367Z,39.70
2018-03-07T03:30:08.539Z,39.20
2018-03-07T03:31:08.713Z,39.90
2018-03-07T03:32:08.896Z,40.30
2018-03-07T03:33:09.074Z,39.10
2018-03-07T03:34:09.249Z,40.00
2018-03-07T03:35:09.422Z,39.30
2018-03-07T03:36:09.603Z,38.00
2018-03-07T03:37:09.775Z,40.70
2018-03-07T03:38:09.947Z,39.10
2018-03-07T03:39:10.121Z,39.10
2018-03-07T03:40:10.299Z,40.00
2018-03-07T03:41:10.479Z,40.70
2018-03-07T03:42:10.652Z,39.80
2018-03-07T03:43:10.826Z,39.50
2018-03-07T03:44:10.997Z,40.30
2018-03-07T03:45:11.166Z,40.20
2018-03-07T03:46:11.343Z,40.20
2018-03-07T03:47:11.524Z,41.00
2018-03-07T03:48:11.689Z,40.50
2018-03-07T03:49:11.859Z,40.50
2018-03-07T03:50:12.039Z,41.00
2018-03-07T03:51:12.211Z,41.50
2018-03-07T03:52:12.385Z,41.60
2018-03-07T03:53:12.560Z,41.90
2018-03-07T03:54:12.735Z,42.30
2018-03-07T03:55:12.905Z,41.30
2018-03-07T03:56:13.082Z,41.80
2018-03-07T03:57:13.253Z,41.30
2018-03-07T03:58:13.428Z,41.90
2018-03-07T03:59:13.600Z,41.50
2018-03-07T04:00:13.775Z,41.50
2018-03-07T04:01:13.951Z,42.20
2018-03-07T04:02:14.130Z,42.10
2018-03-07T04:03:14.303Z,42.20
2018-03-07T04:04:14.474Z,41.50
2018-03-07T04:05:14.652Z,41.30
2018-03-07T04:06:14.823Z,40.60
2018-03-07T04:07:15.004Z,42.50
2018-03-07T04:08:15.176Z,42.00
2018-03-07T04:09:15.355Z,43.20
2018-03-07T04:10:15.523Z,43.00
2018-03-07T04:11:15.704Z,42.40
2018-03-07T04:12:16.120Z,43.70
2018-03-07T04:13:16.044Z,42.70
2018-03-07T04:14:16.219Z,42.80
2018-03-07T04:15:16.402Z,44.10
2018-03-07T04:16:16.567Z,43.90
2018-03-07T04:17:16.742Z,44.00
2018-03-07T04:18:16.917Z,43.70
2018-03-07T04:19:17.090Z,43.50
2018-03-07T04:20:17.264Z,43.00
2018-03-07T04:21:17.452Z,43.90
2018-03-07T04:22:17.620Z,43.10
2018-03-07T04:23:17.790Z,43.70
2018-03-07T04:24:17.968Z,43.00
2018-03-07T04:25:18.141Z,42.40
2018-03-07T04:26:18.308Z,43.60
2018-03-07T04:27:18.488Z,42.60
2018-03-07T04:28:18.657Z,42.90
2018-03-07T04:29:18.832Z,44.40
2018-03-07T04:30:19.006Z,43.60
2018-03-07T04:31:19.178Z,43.50
2018-03-07T04:32:19.366Z,43.00
2018-03-07T04:33:19.530Z,42.80
2018-03-07T04:34:19.708Z,43.20
2018-03-07T04:35:19.874Z,43.90
2018-03-07T04:36:20.047Z,43.70
2018-03-07T04:37:20.233Z,43.70
2018-03-07T04:38:20.397Z,43.40
2018-03-07T04:39:20.580Z,44.70
2018-03-07T04:40:20.750Z,44.70
2018-03-07T04:41:20.922Z,44.50
2018-03-07T04:42:21.096Z,43.80
2018-03-07T04:43:21.269Z,44.40
2018-03-07T04:44:21.447Z,44.40
2018-03-07T04:45:21.623Z,45.50
2018-03-07T04:46:21.792Z,44.60
2018-03-07T04:47:22.208Z,44.60
2018-03-07T04:48:22.149Z,44.40
2018-03-07T04:49:22.321Z,44.60
2018-03-07T04:50:22.499Z,46.20
2018-03-07T04:51:22.675Z,45.20
2018-03-07T04:52:22.843Z,46.10
2018-03-07T04:53:23.015Z,46.40
2018-03-07T04:54:23.193Z,46.90
2018-03-07T04:55:23.364Z,46.70
2018-03-07T04:56:23.540Z,46.30
2018-03-07T04:57:23.713Z,46.20
2018-03-07T04:58:23.888Z,47.00
2018-03-07T04:59:24.065Z,46.50
2018-03-07T05:01:24.406Z,44.40
2018-03-07T05:02:24.585Z,45.90
2018-03-07T05:03:24.759Z,47.50
2018-03-07T05:04:24.930Z,46.30
2018-03-07T05:05:25.103Z,45.90
2018-03-07T05:06:25.276Z,45.50
2018-03-07T05:07:25.451Z,45.70
2018-03-07T05:08:25.628Z,46.30
2018-03-07T05:09:25.803Z,44.70
2018-03-07T05:10:25.985Z,45.10
2018-03-07T05:11:26.146Z,44.40
2018-03-07T05:12:26.324Z,46.90
2018-03-07T05:13:26.493Z,45.50
2018-03-07T05:14:26.668Z,44.30
2018-03-07T05:15:26.849Z,46.30
2018-03-07T05:16:27.017Z,45.00
2018-03-07T05:17:27.188Z,46.30
2018-03-07T05:18:27.365Z,44.90
2018-03-07T05:19:27.541Z,45.90
2018-03-07T05:20:27.724Z,46.50
2018-03-07T05:21:27.890Z,47.50
2018-03-07T05:22:28.069Z,46.30
2018-03-07T05:23:28.243Z,46.10
2018-03-07T05:24:28.407Z,47.30
2018-03-07T05:25:28.592Z,47.60
2018-03-07T05:26:28.758Z,45.20
2018-03-07T05:27:28.935Z,47.10
2018-03-07T05:28:29.111Z,47.30
2018-03-07T05:29:29.289Z,46.40
2018-03-07T05:30:29.465Z,47.10
2018-03-07T05:31:29.637Z,47.10
2018-03-07T05:32:29.816Z,46.80
2018-03-07T05:33:29.991Z,46.30
2018-03-07T05:34:30.157Z,47.30
2018-03-07T05:35:30.331Z,47.80
2018-03-07T05:36:30.507Z,47.20
2018-03-07T05:37:30.682Z,49.50
2018-03-07T05:38:30.860Z,49.40
2018-03-07T05:39:31.030Z,49.60
2018-03-07T05:40:31.206Z,49.00
2018-03-07T05:41:31.381Z,49.30
2018-03-07T05:42:31.553Z,50.30
2018-03-07T05:44:31.894Z,49.80
2018-03-07T05:45:32.069Z,50.90
2018-03-07T05:46:32.244Z,51.50
2018-03-07T05:47:32.418Z,50.30
2018-03-07T05:48:32.594Z,50.60
2018-03-07T05:49:32.776Z,50.00
2018-03-07T05:50:32.943Z,51.10
2018-03-07T05:51:33.128Z,51.20
2018-03-07T05:52:33.300Z,52.20
2018-03-07T05:53:33.487Z,51.20
2018-03-07T05:54:33.656Z,51.60
2018-03-07T05:55:33.822Z,50.90
2018-03-07T05:56:33.998Z,50.80
2018-03-07T05:57:34.171Z,51.40
2018-03-07T05:58:34.344Z,50.10
2018-03-07T05:59:34.519Z,50.70
2018-03-07T06:00:34.695Z,50.20
2018-03-07T06:01:34.873Z,51.80
2018-03-07T06:02:35.049Z,51.10
2018-03-07T06:03:35.222Z,50.70
2018-03-07T06:04:35.402Z,51.30
2018-03-07T06:05:35.579Z,51.80
2018-03-07T06:06:35.756Z,51.20
2018-03-07T06:07:35.933Z,49.70
2018-03-07T06:08:36.104Z,51.80
2018-03-07T06:09:36.280Z,50.80
2018-03-07T06:10:36.455Z,51.20
2018-03-07T06:11:36.633Z,52.80
2018-03-07T06:12:36.805Z,51.50
2018-03-07T06:13:36.979Z,51.30
2018-03-07T06:14:37.155Z,52.40
2018-03-07T06:15:37.339Z,51.00
2018-03-07T06:16:37.507Z,53.50
2018-03-07T06:17:37.690Z,54.40
2018-03-07T06:18:37.865Z,53.40
2018-03-07T06:19:38.048Z,52.50
2018-03-07T06:20:38.223Z,53.00
2018-03-07T06:21:38.400Z,54.10
2018-03-07T06:22:38.591Z,51.50
2018-03-07T06:23:38.772Z,54.00
2018-03-07T06:24:38.942Z,52.70
2018-03-07T06:25:39.121Z,53.60
2018-03-07T06:26:39.291Z,53.40
2018-03-07T06:27:39.462Z,54.20
2018-03-07T06:28:39.638Z,55.90
2018-03-07T06:29:39.817Z,56.20
2018-03-07T06:30:40.242Z,55.50
2018-03-07T06:31:40.164Z,55.40
2018-03-07T06:32:40.335Z,54.80
2018-03-07T06:33:40.518Z,55.10
2018-03-07T06:34:40.685Z,57.50
2018-03-07T06:35:40.871Z,57.50
2018-03-07T06:36:41.038Z,56.80
2018-03-07T06:37:41.217Z,58.50
2018-03-07T06:38:41.390Z,58.90
2018-03-07T06:39:41.559Z,59.50
2018-03-07T06:40:41.739Z,59.40
2018-03-07T06:41:41.915Z,59.70
2018-03-07T06:42:42.092Z,59.50
2018-03-07T06:43:42.294Z,58.30
2018-03-07T06:44:42.430Z,58.70
2018-03-07T06:45:42.607Z,59.20
2018-03-07T06:46:42.781Z,58.70
2018-03-07T06:47:42.959Z,58.70
2018-03-07T06:48:43.137Z,58.00
2018-03-07T06:49:43.313Z,59.10
2018-03-07T06:50:43.492Z,59.20
2018-03-07T06:51:43.684Z,57.90
2018-03-07T06:52:43.846Z,57.90
2018-03-07T06:53:44.025Z,58.00
2018-03-07T06:54:44.205Z,59.70
2018-03-07T06:55:44.376Z,60.10
2018-03-07T06:56:44.549Z,57.90
2018-03-07T06:57:44.726Z,60.00
2018-03-07T06:58:44.915Z,59.60
2018-03-07T06:59:45.086Z,58.80
2018-03-07T07:00:45.262Z,58.30
2018-03-07T07:01:45.434Z,58.10
2018-03-07T07:02:45.612Z,60.90
2018-03-07T07:03:45.794Z,60.00
2018-03-07T07:04:45.962Z,62.70
2018-03-07T07:05:46.138Z,64.40
2018-03-07T07:06:46.313Z,62.90
2018-03-07T07:07:46.493Z,64.30
2018-03-07T07:08:46.659Z,63.00
2018-03-07T07:09:46.838Z,64.30
2018-03-07T07:10:47.026Z,63.00
2018-03-07T07:11:47.190Z,61.00
2018-03-07T07:12:47.369Z,61.80
2018-03-07T07:13:47.543Z,64.10
2018-03-07T07:14:47.732Z,64.00
2018-03-07T07:15:47.901Z,62.40
2018-03-07T07:16:48.094Z,64.30
2018-03-07T07:17:48.249Z,67.90
2018-03-07T07:18:48.438Z,91.80
2018-03-07T07:19:48.612Z,70.70
2018-03-07T07:20:48.790Z,63.90
2018-03-07T07:21:48.963Z,65.30
2018-03-07T07:22:49.138Z,63.70
2018-03-07T07:23:49.331Z,67.00
2018-03-07T07:24:49.491Z,65.30
2018-03-07T07:25:49.663Z,63.60
2018-03-07T07:26:49.858Z,64.90
2018-03-07T07:27:50.012Z,64.70
2018-03-07T07:28:50.188Z,63.60
2018-03-07T07:29:50.367Z,63.00
2018-03-07T07:30:50.544Z,62.80
2018-03-07T07:31:50.713Z,60.90
2018-03-07T07:32:50.906Z,63.00
2018-03-07T07:33:51.079Z,63.50
2018-03-07T07:34:51.250Z,62.80
2018-03-07T07:35:51.420Z,61.60
2018-03-07T07:36:51.605Z,61.80
2018-03-07T07:37:51.769Z,62.70
2018-03-07T07:38:51.944Z,62.20
2018-03-07T07:39:52.116Z,62.20
2018-03-07T07:40:52.310Z,62.00
2018-03-07T07:41:52.485Z,64.30
2018-03-07T07:42:52.652Z,63.50
2018-03-07T07:43:52.811Z,62.00
2018-03-07T07:44:52.987Z,62.00
2018-03-07T07:45:53.168Z,61.40
2018-03-07T07:46:53.347Z,61.60
2018-03-07T07:47:53.516Z,63.00
2018-03-07T07:48:53.709Z,61.20
2018-03-07T07:49:53.864Z,65.00
2018-03-07T07:50:54.032Z,62.30
2018-03-07T07:51:54.226Z,62.60
2018-03-07T07:52:54.397Z,61.10
2018-03-07T07:53:54.570Z,60.10
2018-03-07T07:54:54.763Z,60.10
2018-03-07T07:55:54.941Z,59.00
2018-03-07T07:56:55.114Z,59.20
2018-03-07T07:57:55.298Z,59.20
2018-03-07T07:58:55.473Z,58.40
2018-03-07T07:59:55.643Z,60.10
2018-03-07T08:00:55.828Z,59.50
2018-03-07T08:01:55.998Z,58.60
2018-03-07T08:02:56.178Z,57.60
2018-03-07T08:03:56.355Z,56.30
2018-03-07T08:04:56.524Z,55.40
2018-03-07T08:05:56.714Z,55.30
2018-03-07T08:06:56.879Z,57.10
2018-03-07T08:07:57.053Z,55.70
2018-03-07T08:08:57.227Z,58.10
2018-03-07T08:09:57.406Z,56.60
2018-03-07T08:10:57.613Z,56.40
2018-03-07T08:11:57.791Z,56.40
2018-03-07T08:12:57.955Z,57.50
2018-03-07T08:13:58.139Z,56.20
2018-03-07T08:14:58.301Z,56.20
2018-03-07T08:15:58.475Z,57.00
2018-03-07T08:16:58.653Z,55.00
2018-03-07T08:17:58.832Z,54.90
2018-03-07T08:18:59.018Z,54.10
2018-03-07T08:19:59.186Z,54.40
2018-03-07T08:20:59.363Z,53.40
2018-03-07T08:21:59.552Z,53.30
2018-03-07T08:22:59.710Z,54.50
2018-03-07T08:23:59.894Z,53.50
2018-03-07T08:25:00.082Z,53.50
2018-03-07T08:26:00.236Z,53.90
2018-03-07T08:27:00.405Z,51.90
2018-03-07T08:28:00.589Z,51.00
2018-03-07T08:29:00.771Z,52.30
2018-03-07T08:30:00.935Z,52.30
2018-03-07T08:31:01.116Z,52.40
2018-03-07T08:32:01.295Z,51.60
2018-03-07T08:33:01.474Z,50.00
2018-03-07T08:34:01.647Z,50.20
2018-03-07T08:35:01.822Z,48.90
2018-03-07T08:36:02.004Z,48.90
2018-03-07T08:37:02.181Z,49.80
2018-03-07T08:38:02.612Z,48.70
2018-03-07T08:39:02.532Z,46.30
2018-03-07T08:40:02.714Z,46.70
2018-03-07T08:41:02.894Z,48.00
2018-03-07T08:42:03.054Z,49.70
2018-03-07T08:43:03.240Z,50.00
2018-03-07T08:44:03.406Z,47.90
2018-03-07T08:45:03.583Z,45.80
2018-03-07T08:46:03.792Z,46.40
2018-03-07T08:47:03.943Z,46.30
2018-03-07T08:48:04.140Z,47.30
2018-03-07T08:49:04.311Z,44.30
2018-03-07T08:50:04.491Z,44.40
2018-03-07T08:51:04.666Z,41.50
2018-03-07T08:52:04.843Z,43.60
2018-03-07T08:53:05.015Z,40.40
2018-03-07T08:54:05.189Z,41.40
2018-03-07T08:55:05.365Z,38.90
2018-03-07T08:56:05.540Z,39.40
2018-03-07T08:57:05.725Z,37.00
2018-03-07T08:58:05.959Z,38.10
2018-03-07T08:59:06.073Z,35.50
2018-03-07T09:00:06.261Z,36.10
2018-03-07T09:01:06.437Z,35.80
2018-03-07T09:02:06.613Z,35.50
2018-03-07T09:03:06.792Z,36.20
2018-03-07T09:04:06.964Z,34.50
2018-03-07T09:05:07.140Z,35.30
2018-03-07T09:06:07.319Z,35.00
2018-03-07T09:07:07.494Z,34.50
2018-03-07T09:09:07.855Z,34.40
2018-03-07T09:10:08.042Z,35.20
2018-03-07T09:11:08.211Z,34.90
2018-03-07T09:12:08.394Z,35.20
2018-03-07T09:13:08.568Z,34.00
2018-03-07T09:14:08.756Z,34.90
2018-03-07T09:15:08.917Z,35.20
2018-03-07T09:16:09.097Z,35.70
2018-03-07T09:17:09.278Z,36.70
2018-03-07T09:18:09.455Z,35.30
2018-03-07T09:19:09.629Z,36.60
2018-03-07T09:20:09.802Z,35.80
2018-03-07T09:21:09.997Z,36.90
2018-03-07T09:22:10.154Z,35.60
2018-03-07T09:23:10.324Z,36.10
2018-03-07T09:24:10.503Z,34.80
2018-03-07T09:25:10.677Z,35.50
2018-03-07T09:26:10.855Z,36.50
2018-03-07T09:27:11.054Z,35.00
2018-03-07T09:28:11.212Z,36.30
2018-03-07T09:29:11.397Z,37.20
2018-03-07T09:30:11.570Z,35.70
2018-03-07T09:31:11.750Z,36.70
2018-03-07T09:32:11.931Z,35.40
2018-03-07T09:33:12.102Z,35.30
2018-03-07T09:34:12.286Z,35.90
2018-03-07T09:35:12.454Z,36.20
2018-03-07T09:36:12.625Z,37.20
2018-03-07T09:37:12.804Z,36.90
2018-03-07T09:38:12.983Z,37.00
2018-03-07T09:39:13.162Z,36.70
2018-03-07T09:40:13.335Z,38.20
2018-03-07T09:41:13.514Z,39.10
2018-03-07T09:42:13.696Z,38.80
2018-03-07T09:43:13.874Z,39.10
2018-03-07T09:44:14.055Z,38.60
2018-03-07T09:45:14.480Z,40.00
2018-03-07T09:46:14.410Z,38.90
2018-03-07T09:47:14.593Z,39.10
2018-03-07T09:48:14.764Z,39.40
2018-03-07T09:49:14.942Z,39.00
2018-03-07T09:50:15.120Z,39.10
2018-03-07T09:51:15.345Z,38.50
2018-03-07T09:52:15.487Z,38.60
2018-03-07T09:53:15.663Z,38.70
2018-03-07T09:54:15.842Z,39.90
2018-03-07T09:55:16.023Z,39.50
2018-03-07T09:56:16.217Z,40.30
2018-03-07T09:57:16.373Z,41.00
2018-03-07T09:58:16.560Z,42.90
2018-03-07T09:59:16.711Z,38.50
2018-03-07T10:00:16.884Z,37.70
2018-03-07T10:01:17.073Z,35.70
2018-03-07T10:02:17.242Z,34.70
2018-03-07T10:03:17.423Z,35.90
2018-03-07T10:04:17.601Z,35.70
2018-03-07T10:05:17.778Z,36.10
2018-03-07T10:06:17.967Z,36.40
2018-03-07T10:07:18.148Z,35.40
2018-03-07T10:08:18.335Z,34.90
2018-03-07T10:09:18.516Z,37.10
2018-03-07T10:10:18.693Z,35.00
2018-03-07T10:11:18.877Z,37.20
2018-03-07T10:12:19.059Z,35.10
2018-03-07T10:13:19.247Z,35.20
2018-03-07T10:14:19.429Z,33.80
2018-03-07T10:15:19.628Z,35.90
2018-03-07T10:16:19.796Z,34.60
2018-03-07T10:17:19.976Z,36.10
2018-03-07T10:18:20.157Z,33.90
2018-03-07T10:19:20.337Z,35.50
2018-03-07T10:20:20.526Z,34.80
2018-03-07T10:21:20.725Z,34.10
2018-03-07T10:22:20.880Z,36.30
2018-03-07T10:23:21.079Z,35.80
2018-03-07T10:24:21.239Z,36.10
2018-03-07T10:25:21.413Z,35.30
2018-03-07T10:26:21.592Z,36.10
2018-03-07T10:27:21.775Z,36.90
2018-03-07T10:28:21.956Z,34.90
2018-03-07T10:30:22.317Z,35.60
2018-03-07T10:31:22.481Z,34.10
2018-03-07T10:32:22.683Z,34.00
2018-03-07T10:33:22.857Z,32.60
2018-03-07T10:34:23.043Z,33.10
2018-03-07T10:35:23.221Z,33.80
2018-03-07T10:36:23.403Z,33.00
2018-03-07T10:37:23.585Z,35.20
2018-03-07T10:38:23.769Z,33.40
2018-03-07T10:39:23.950Z,32.90
2018-03-07T10:40:24.126Z,31.20
2018-03-07T10:41:24.309Z,31.50
2018-03-07T10:42:24.496Z,29.30
2018-03-07T10:43:24.674Z,31.70
2018-03-07T10:44:24.851Z,29.60
2018-03-07T10:45:25.036Z,27.60
2018-03-07T10:46:25.213Z,28.70
2018-03-07T10:47:25.398Z,28.00
2018-03-07T10:48:25.579Z,29.20
2018-03-07T10:49:25.802Z,26.10
2018-03-07T10:50:25.923Z,26.70
2018-03-07T10:51:26.133Z,26.40
2018-03-07T10:52:26.318Z,25.60
2018-03-07T10:53:26.484Z,25.80
2018-03-07T10:54:26.672Z,27.50
2018-03-07T10:55:26.852Z,26.80
2018-03-07T10:56:27.037Z,27.40
2018-03-07T10:57:27.215Z,27.20
2018-03-07T10:58:27.414Z,28.60
2018-03-07T10:59:27.588Z,26.70
2018-03-07T11:00:27.775Z,26.10
2018-03-07T11:01:27.960Z,25.20
2018-03-07T11:02:28.177Z,25.90
2018-03-07T11:03:28.320Z,25.10
2018-03-07T11:04:28.497Z,24.80
2018-03-07T11:05:28.680Z,24.50
2018-03-07T11:06:28.865Z,23.80
2018-03-07T11:07:29.043Z,23.80
2018-03-07T11:08:29.230Z,23.90
2018-03-07T11:09:29.415Z,24.20
2018-03-07T11:10:29.602Z,22.60
2018-03-07T11:11:29.779Z,22.70
2018-03-07T11:12:29.968Z,21.10
2018-03-07T11:13:30.790Z,21.40
2018-03-07T11:14:30.304Z,21.90
2018-03-07T11:15:30.489Z,21.40
2018-03-07T11:16:30.671Z,21.70
2018-03-07T11:17:30.847Z,21.60
2018-03-07T11:18:31.085Z,21.30
2018-03-07T11:19:31.224Z,18.30
2018-03-07T11:21:31.583Z,17.20
2018-03-07T11:22:31.764Z,19.10
2018-03-07T11:23:31.955Z,16.40
2018-03-07T11:24:32.133Z,15.90
2018-03-07T11:25:32.314Z,15.50
2018-03-07T11:26:32.503Z,14.40
2018-03-07T11:27:32.683Z,13.40
2018-03-07T11:28:32.878Z,12.20
2018-03-07T11:29:33.091Z,11.40
2018-03-07T11:30:33.235Z,11.60
2018-03-07T11:31:33.415Z,10.40
2018-03-07T11:32:33.600Z,11.30
2018-03-07T11:33:33.785Z,11.00
2018-03-07T11:34:33.966Z,11.60
2018-03-07T11:35:34.150Z,14.30
2018-03-07T11:36:34.395Z,12.40
2018-03-07T11:37:34.559Z,11.80
2018-03-07T11:38:34.766Z,12.00
2018-03-07T11:39:34.947Z,12.80
2018-03-07T11:40:35.115Z,12.40
2018-03-07T11:41:35.295Z,11.50
2018-03-07T11:42:35.473Z,12.20
2018-03-07T11:43:35.662Z,11.70
2018-03-07T11:45:36.022Z,11.90
2018-03-07T11:46:36.201Z,12.00
2018-03-07T11:47:36.404Z,11.30
2018-03-07T11:48:36.565Z,11.40
2018-03-07T11:49:36.746Z,11.20
2018-03-07T11:50:36.924Z,11.70
2018-03-07T11:51:37.106Z,12.20
2018-03-07T11:52:37.288Z,12.00
2018-03-07T11:53:37.477Z,12.60
2018-03-07T11:54:37.652Z,13.00
2018-03-07T11:55:37.835Z,13.00
2018-03-07T11:56:38.009Z,12.90
2018-03-07T11:57:38.193Z,12.60
2018-03-07T11:58:38.375Z,13.40
2018-03-07T11:59:38.563Z,14.20
2018-03-07T12:00:38.725Z,13.50
2018-03-07T12:01:38.900Z,15.90
2018-03-07T12:02:39.088Z,14.00
2018-03-07T12:03:39.268Z,14.50
2018-03-07T12:04:39.448Z,14.70
2018-03-07T12:05:39.628Z,14.60
2018-03-07T12:06:39.812Z,14.60
2018-03-07T12:07:39.994Z,15.00
2018-03-07T12:08:40.427Z,15.30
2018-03-07T12:09:40.349Z,15.50
2018-03-07T12:10:40.531Z,15.40
2018-03-07T12:11:40.703Z,15.10
2018-03-07T12:12:40.886Z,15.70
2018-03-07T12:13:41.073Z,16.70
2018-03-07T12:14:41.242Z,16.20
2018-03-07T12:15:41.415Z,16.10
2018-03-07T12:16:41.590Z,16.10
2018-03-07T12:17:41.785Z,16.30
2018-03-07T12:18:42.204Z,16.10
2018-03-07T12:19:42.127Z,16.80
2018-03-07T12:20:42.300Z,16.60
2018-03-07T12:21:42.486Z,15.70
2018-03-07T12:22:42.656Z,16.70
2018-03-07T12:23:42.835Z,15.50
2018-03-07T12:24:43.029Z,15.30
2018-03-07T12:25:43.192Z,16.20
2018-03-07T12:26:43.372Z,15.00
2018-03-07T12:27:43.605Z,15.50
2018-03-07T12:28:43.741Z,15.60
2018-03-07T12:29:43.935Z,15.30
2018-03-07T12:30:44.130Z,16.30
2018-03-07T12:31:44.314Z,16.30
2018-03-07T12:32:44.483Z,16.20
2018-03-07T12:33:44.667Z,16.80
2018-03-07T12:34:44.827Z,15.70
2018-03-07T12:35:45.013Z,16.70
2018-03-07T12:36:45.188Z,15.00
2018-03-07T12:37:45.366Z,14.70
2018-03-07T12:38:45.886Z,14.80
2018-03-07T12:39:45.700Z,14.90
2018-03-07T12:40:45.867Z,14.40
2018-03-07T12:41:46.110Z,13.00
2018-03-07T12:42:46.224Z,13.60
2018-03-07T12:43:46.641Z,12.90
2018-03-07T12:44:46.529Z,14.50
2018-03-07T12:45:46.696Z,13.50
2018-03-07T12:46:46.890Z,12.30
2018-03-07T12:47:47.053Z,13.40
2018-03-07T12:48:47.236Z,12.90
2018-03-07T12:49:47.403Z,12.90
2018-03-07T12:50:47.588Z,13.20
2018-03-07T12:51:47.757Z,13.80
2018-03-07T12:52:47.940Z,13.10
2018-03-07T12:53:48.114Z,12.30
2018-03-07T12:54:48.283Z,10.40
2018-03-07T12:55:48.462Z,10.60
2018-03-07T12:56:48.631Z,9.10
2018-03-07T12:57:49.049Z,9.00
2018-03-07T12:58:48.991Z,9.10
2018-03-07T12:59:49.162Z,8.10
2018-03-07T13:00:49.322Z,7.60
2018-03-07T13:01:49.509Z,7.40
2018-03-07T13:02:49.680Z,8.20
2018-03-07T13:03:49.863Z,8.40
2018-03-07T13:04:50.036Z,8.90
2018-03-07T13:05:50.849Z,7.80